createdAt,value
2022-08-08T00:01:06.725Z,13.20
2022-08-08T00:03:48.036Z,13.20
2022-08-08T00:06:34.706Z,13.20
2022-08-08T00:09:09.346Z,13.10
2022-08-08T00:11:46.615Z,12.90
2022-08-08T00:14:56.866Z,12.80
2022-08-08T00:17:58.380Z,12.90
2022-08-08T00:20:32.177Z,12.90
2022-08-08T00:23:07.960Z,12.90
2022-08-08T00:25:46.260Z,12.90
2022-08-08T00:28:35.457Z,12.80
2022-08-08T00:32:20.243Z,12.80
2022-08-08T00:34:33.695Z,12.60
2022-08-08T00:37:45.180Z,12.50
2022-08-08T00:41:12.530Z,12.40
2022-08-08T00:43:59.333Z,12.40
2022-08-08T00:47:04.402Z,12.40
2022-08-08T00:50:09.588Z,12.30
2022-08-08T00:52:51.343Z,12.20
2022-08-08T00:56:01.644Z,12.20
2022-08-08T00:59:05.794Z,12.10
2022-08-08T01:01:40.390Z,12.00
2022-08-08T01:04:42.109Z,12.20
2022-08-08T01:07:55.941Z,12.20
2022-08-08T01:11:17.902Z,12.10
2022-08-08T01:14:53.642Z,12.00
2022-08-08T01:18:07.279Z,11.90
2022-08-08T01:20:56.493Z,11.80
2022-08-08T01:24:06.238Z,11.70
2022-08-08T01:27:33.213Z,11.70
2022-08-08T01:30:53.387Z,11.60
2022-08-08T01:33:54.343Z,11.60
2022-08-08T01:37:03.071Z,11.50
2022-08-08T01:39:49.571Z,11.50
2022-08-08T01:42:36.647Z,11.50
2022-08-08T01:45:22.692Z,11.60
2022-08-08T01:48:16.517Z,11.60
2022-08-08T01:51:31.345Z,11.60
2022-08-08T01:55:16.859Z,11.50
2022-08-08T01:57:10.721Z,11.40
2022-08-08T02:00:08.207Z,11.40
2022-08-08T02:03:07.187Z,11.40
2022-08-08T02:05:56.567Z,11.30
2022-08-08T02:08:39.164Z,11.30
2022-08-08T02:12:00.062Z,11.30
2022-08-08T02:14:25.714Z,11.20
2022-08-08T02:17:03.279Z,11.20
2022-08-08T02:20:09.366Z,11.10
2022-08-08T02:22:52.884Z,11.10
2022-08-08T02:25:33.141Z,11.00
2022-08-08T02:28:34.777Z,11.00
2022-08-08T02:31:43.153Z,10.90
2022-08-08T02:34:08.657Z,10.90
2022-08-08T02:36:45.406Z,10.90
2022-08-08T02:39:41.929Z,10.90
2022-08-08T02:43:23.332Z,10.80
2022-08-08T02:46:12.335Z,10.80
2022-08-08T02:49:27.355Z,10.80
2022-08-08T02:52:34.947Z,10.90
2022-08-08T02:55:57.910Z,10.80
2022-08-08T02:59:05.804Z,10.70
2022-08-08T03:02:36.933Z,10.70
2022-08-08T03:05:27.607Z,10.60
2022-08-08T03:09:00.928Z,10.60
2022-08-08T03:12:06.088Z,10.50
2022-08-08T03:16:00.296Z,10.50
2022-08-08T03:18:07.039Z,10.50
2022-08-08T03:20:46.791Z,10.40
2022-08-08T03:23:20.889Z,10.50
2022-08-08T03:25:50.917Z,10.50
2022-08-08T03:28:21.911Z,10.40
2022-08-08T03:31:13.687Z,10.50
2022-08-08T03:33:55.253Z,10.40
2022-08-08T03:36:30.318Z,10.40
2022-08-08T03:39:14.987Z,10.40
2022-08-08T03:42:26.541Z,10.40
2022-08-08T03:44:34.687Z,10.40
2022-08-08T03:47:14.037Z,10.40
2022-08-08T03:50:00.233Z,10.50
2022-08-08T03:52:32.051Z,10.60
2022-08-08T03:55:10.665Z,10.60
2022-08-08T03:58:31.083Z,10.50
2022-08-08T04:00:53.919Z,10.50
2022-08-08T04:03:59.302Z,10.60
2022-08-08T04:06:13.771Z,10.70
2022-08-08T04:08:42.412Z,10.70
2022-08-08T04:11:17.606Z,10.60
2022-08-08T04:14:03.287Z,10.50
2022-08-08T04:16:40.367Z,10.70
2022-08-08T04:19:25.021Z,10.80
2022-08-08T04:21:54.333Z,10.80
2022-08-08T04:24:29.395Z,10.90
2022-08-08T04:27:00.586Z,11.10
2022-08-08T04:29:33.041Z,11.20
2022-08-08T04:32:01.598Z,11.20
2022-08-08T04:34:32.342Z,11.30
2022-08-08T04:37:12.199Z,11.30
2022-08-08T04:40:03.196Z,11.30
2022-08-08T04:42:31.677Z,11.50
2022-08-08T04:45:00.819Z,11.80
2022-08-08T04:47:28.840Z,12.00
2022-08-08T04:50:00.752Z,12.10
2022-08-08T04:52:34.200Z,12.30
2022-08-08T04:55:04.282Z,12.30
2022-08-08T04:57:34.873Z,12.30
2022-08-08T05:00:02.954Z,12.20
2022-08-08T05:02:31.670Z,12.10
2022-08-08T05:05:00.054Z,12.10
2022-08-08T05:07:37.944Z,12.10
2022-08-08T05:10:12.337Z,12.00
2022-08-08T05:13:00.028Z,12.10
2022-08-08T05:15:31.492Z,12.20
2022-08-08T05:18:17.617Z,12.30
2022-08-08T05:20:50.251Z,12.30
2022-08-08T05:23:20.628Z,12.40
2022-08-08T05:25:49.810Z,12.40
2022-08-08T05:28:48.273Z,12.40
2022-08-08T05:31:19.445Z,12.40
2022-08-08T05:33:55.123Z,12.40
2022-08-08T05:36:28.007Z,12.60
2022-08-08T05:38:58.812Z,12.70
2022-08-08T05:41:28.055Z,12.80
2022-08-08T05:44:14.473Z,12.80
2022-08-08T05:46:42.775Z,12.90
2022-08-08T05:49:17.433Z,13.00
2022-08-08T05:51:49.584Z,13.20
2022-08-08T05:54:42.834Z,13.30
2022-08-08T05:57:12.114Z,13.50
2022-08-08T05:59:53.610Z,13.60
2022-08-08T06:02:47.952Z,13.70
2022-08-08T06:05:33.687Z,13.80
2022-08-08T06:08:09.384Z,13.90
2022-08-08T06:10:41.162Z,14.00
2022-08-08T06:13:09.874Z,14.20
2022-08-08T06:15:50.806Z,14.30
2022-08-08T06:18:23.681Z,14.50
2022-08-08T06:20:56.540Z,14.70
2022-08-08T06:23:52.661Z,14.80
2022-08-08T06:26:38.960Z,15.00
2022-08-08T06:29:18.598Z,15.20
2022-08-08T06:32:10.004Z,15.40
2022-08-08T06:34:56.366Z,15.60
2022-08-08T06:37:40.261Z,15.80
2022-08-08T06:40:14.238Z,16.00
2022-08-08T06:42:53.098Z,16.10
2022-08-08T06:45:22.939Z,16.30
2022-08-08T06:48:00.814Z,16.40
2022-08-08T06:50:33.412Z,16.60
2022-08-08T06:53:09.826Z,16.70
2022-08-08T06:55:43.170Z,16.90
2022-08-08T06:58:11.157Z,17.10
2022-08-08T07:00:41.175Z,17.20
2022-08-08T07:03:51.538Z,17.30
2022-08-08T07:06:05.531Z,17.50
2022-08-08T07:08:38.467Z,17.70
2022-08-08T07:11:08.868Z,17.90
2022-08-08T07:14:01.543Z,18.10
2022-08-08T07:16:53.853Z,18.30
2022-08-08T07:19:31.564Z,18.50
2022-08-08T07:22:05.325Z,18.80
2022-08-08T07:24:36.520Z,18.90
2022-08-08T07:27:16.798Z,19.20
2022-08-08T07:29:59.846Z,19.40
2022-08-08T07:32:29.108Z,19.60
2022-08-08T07:35:02.742Z,19.80
2022-08-08T07:37:49.548Z,19.90
2022-08-08T07:40:28.892Z,20.20
2022-08-08T07:42:57.539Z,20.40
2022-08-08T07:45:34.727Z,20.70
2022-08-08T07:48:15.023Z,20.90
2022-08-08T07:50:45.319Z,21.10
2022-08-08T07:53:52.825Z,21.20
2022-08-08T07:56:11.590Z,21.40
2022-08-08T07:58:43.593Z,21.70
2022-08-08T08:01:13.960Z,21.90
2022-08-08T08:03:47.547Z,22.20
2022-08-08T08:06:18.630Z,22.40
2022-08-08T08:08:52.501Z,22.70
2022-08-08T08:11:23.840Z,22.90
2022-08-08T08:14:09.952Z,23.30
2022-08-08T08:16:41.392Z,24.20
2022-08-08T08:19:10.738Z,24.90
2022-08-08T08:21:52.931Z,25.00
2022-08-08T08:24:30.737Z,25.00
2022-08-08T08:27:03.664Z,24.90
2022-08-08T08:29:31.649Z,25.30
2022-08-08T08:32:05.448Z,26.00
2022-08-08T08:34:34.043Z,27.20
2022-08-08T08:37:07.756Z,30.00
2022-08-08T08:39:59.427Z,33.20
2022-08-08T08:42:32.091Z,37.00
2022-08-08T08:45:21.220Z,39.10
2022-08-08T08:47:52.854Z,40.80
2022-08-08T08:50:33.770Z,42.40
2022-08-08T08:53:55.068Z,43.20
2022-08-08T08:56:01.439Z,43.60
2022-08-08T08:58:33.395Z,43.90
2022-08-08T09:01:09.236Z,43.80
2022-08-08T09:03:45.920Z,44.50
2022-08-08T09:06:28.752Z,43.50
2022-08-08T09:09:25.898Z,43.70
2022-08-08T09:12:02.023Z,44.70
2022-08-08T09:14:34.484Z,45.00
2022-08-08T09:17:11.653Z,44.80
2022-08-08T09:21:58.263Z,45.20
2022-08-08T09:22:31.323Z,45.20
2022-08-08T09:25:01.222Z,45.30
2022-08-08T09:27:55.769Z,45.70
2022-08-08T09:30:20.034Z,45.80
2022-08-08T09:33:54.124Z,46.70
2022-08-08T09:35:50.034Z,46.80
2022-08-08T09:38:53.802Z,46.70
2022-08-08T09:42:14.077Z,46.40
2022-08-08T09:44:34.742Z,46.30
2022-08-08T09:48:02.355Z,46.10
2022-08-08T09:50:01.400Z,46.20
2022-08-08T09:52:57.555Z,46.20
2022-08-08T09:55:51.466Z,46.40
2022-08-08T09:58:25.833Z,44.10
2022-08-08T10:01:03.112Z,44.20
2022-08-08T10:03:55.994Z,44.00
2022-08-08T10:06:29.558Z,44.10
2022-08-08T10:08:57.830Z,44.50
2022-08-08T10:12:26.222Z,44.70
2022-08-08T10:14:35.344Z,45.40
2022-08-08T10:17:38.775Z,43.20
2022-08-08T10:20:00.068Z,41.50
2022-08-08T10:22:29.934Z,37.40
2022-08-08T10:25:04.743Z,34.50
2022-08-08T10:27:41.895Z,32.00
2022-08-08T10:30:16.591Z,31.00
2022-08-08T10:33:02.412Z,33.30
2022-08-08T10:36:08.190Z,36.50
2022-08-08T10:38:21.239Z,38.80
2022-08-08T10:40:53.949Z,39.90
2022-08-08T10:43:23.073Z,39.90
2022-08-08T10:45:56.108Z,40.80
2022-08-08T10:48:37.346Z,40.70
2022-08-08T10:51:21.176Z,40.50
2022-08-08T10:53:57.917Z,40.40
2022-08-08T10:56:35.012Z,39.70
2022-08-08T10:59:07.955Z,38.20
2022-08-08T11:01:39.120Z,35.50
2022-08-08T11:04:10.898Z,33.90
2022-08-08T11:06:41.497Z,32.70
2022-08-08T11:09:19.757Z,31.80
2022-08-08T11:12:04.907Z,31.20
2022-08-08T11:14:49.642Z,30.60
2022-08-08T11:18:00.090Z,30.10
2022-08-08T11:20:12.922Z,29.80
2022-08-08T11:22:42.022Z,29.80
2022-08-08T11:25:14.450Z,29.80
2022-08-08T11:27:46.961Z,30.00
2022-08-08T11:30:20.170Z,30.00
2022-08-08T11:32:53.734Z,29.80
2022-08-08T11:35:27.939Z,29.70
2022-08-08T11:38:39.323Z,29.40
2022-08-08T11:40:55.017Z,29.30
2022-08-08T11:43:39.221Z,29.40
2022-08-08T11:46:14.405Z,29.60
2022-08-08T11:48:48.766Z,29.80
2022-08-08T11:51:38.165Z,30.00
2022-08-08T11:54:27.247Z,29.80
2022-08-08T11:56:56.364Z,29.70
2022-08-08T12:00:01.178Z,29.80
2022-08-08T12:02:36.992Z,29.70
2022-08-08T12:05:13.421Z,29.90
2022-08-08T12:07:52.309Z,30.10
2022-08-08T12:10:22.076Z,30.20
2022-08-08T12:12:51.793Z,30.30
2022-08-08T12:15:30.732Z,30.30
2022-08-08T12:18:21.733Z,30.50
2022-08-08T12:20:55.190Z,30.70
2022-08-08T12:23:42.890Z,31.10
2022-08-08T12:26:27.279Z,31.30
2022-08-08T12:28:57.082Z,31.50
2022-08-08T12:31:38.694Z,31.50
2022-08-08T12:34:14.455Z,31.30
2022-08-08T12:36:49.220Z,30.80
2022-08-08T12:40:00.286Z,30.60
2022-08-08T12:42:21.271Z,30.50
2022-08-08T12:44:50.406Z,30.00
2022-08-08T12:47:57.830Z,29.70
2022-08-08T12:50:16.388Z,29.50
2022-08-08T12:52:54.790Z,29.60
2022-08-08T12:55:35.506Z,29.80
2022-08-08T12:58:15.640Z,30.00
2022-08-08T13:00:43.874Z,30.10
2022-08-08T13:03:11.859Z,30.10
2022-08-08T13:06:04.118Z,29.80
2022-08-08T13:08:53.122Z,29.90
2022-08-08T13:11:28.758Z,29.90
2022-08-08T13:14:15.463Z,30.10
2022-08-08T13:16:43.975Z,30.10
2022-08-08T13:19:17.919Z,30.20
2022-08-08T13:21:58.130Z,30.30
2022-08-08T13:24:42.310Z,30.30
2022-08-08T13:27:14.757Z,30.30
2022-08-08T13:29:51.651Z,30.70
2022-08-08T13:32:25.253Z,30.80
2022-08-08T13:34:58.982Z,30.90
2022-08-08T13:38:05.029Z,30.90
2022-08-08T13:40:27.535Z,30.70
2022-08-08T13:42:56.147Z,30.20
2022-08-08T13:45:26.276Z,29.80
2022-08-08T13:47:58.437Z,29.60
2022-08-08T13:50:38.515Z,29.40
2022-08-08T13:53:24.602Z,29.20
2022-08-08T13:56:11.840Z,29.10
2022-08-08T13:58:56.341Z,28.90
2022-08-08T14:01:32.710Z,28.90
2022-08-08T14:04:22.099Z,29.10
2022-08-08T14:06:50.804Z,29.10
2022-08-08T14:09:29.836Z,29.00
2022-08-08T14:12:00.082Z,29.10
2022-08-08T14:14:41.763Z,29.00
2022-08-08T14:17:22.414Z,29.10
2022-08-08T14:20:06.397Z,29.00
2022-08-08T14:22:42.974Z,29.00
2022-08-08T14:25:15.273Z,29.00
2022-08-08T14:28:00.025Z,28.90
2022-08-08T14:30:35.281Z,28.60
2022-08-08T14:33:11.145Z,28.40
2022-08-08T14:35:43.273Z,28.20
2022-08-08T14:38:34.800Z,28.00
2022-08-08T14:41:13.438Z,27.80
2022-08-08T14:44:10.067Z,27.70
2022-08-08T14:46:38.078Z,27.70
2022-08-08T14:49:20.729Z,27.80
2022-08-08T14:52:08.315Z,27.90
2022-08-08T14:54:47.310Z,27.90
2022-08-08T14:57:17.013Z,28.00
2022-08-08T14:59:51.069Z,27.90
2022-08-08T15:02:25.719Z,27.80
2022-08-08T15:05:10.839Z,27.80
2022-08-08T15:07:40.719Z,27.80
2022-08-08T15:10:11.664Z,27.80
2022-08-08T15:12:41.575Z,27.60
2022-08-08T15:15:18.948Z,27.50
2022-08-08T15:18:01.673Z,27.40
2022-08-08T15:20:29.674Z,27.40
2022-08-08T15:22:59.246Z,27.30
2022-08-08T15:25:33.544Z,27.10
2022-08-08T15:28:32.630Z,27.00
2022-08-08T15:30:51.261Z,26.80
2022-08-08T15:33:35.147Z,26.60
2022-08-08T15:36:06.726Z,26.50
2022-08-08T15:38:34.572Z,26.60
2022-08-08T15:41:02.393Z,26.50
2022-08-08T15:43:36.445Z,26.50
2022-08-08T15:46:07.282Z,26.50
2022-08-08T15:48:38.007Z,26.50
2022-08-08T15:51:07.093Z,26.60
2022-08-08T15:53:48.912Z,26.40
2022-08-08T15:56:19.819Z,26.30
2022-08-08T15:58:48.763Z,26.20
2022-08-08T16:01:18.863Z,26.10
2022-08-08T16:03:51.623Z,26.00
2022-08-08T16:06:28.733Z,25.80
2022-08-08T16:13:00.026Z,25.70
2022-08-08T16:13:10.887Z,25.50
2022-08-08T16:14:36.352Z,25.50
2022-08-08T16:17:06.257Z,25.50
2022-08-08T16:19:59.953Z,25.50
2022-08-08T16:22:30.423Z,25.40
2022-08-08T16:24:58.822Z,25.50
2022-08-08T16:27:33.923Z,25.60
2022-08-08T16:30:13.687Z,25.80
2022-08-08T16:32:43.895Z,25.90
2022-08-08T16:35:18.690Z,26.20
2022-08-08T16:37:50.791Z,26.30
2022-08-08T16:40:19.835Z,26.50
2022-08-08T16:42:51.785Z,26.70
2022-08-08T16:46:36.794Z,26.80
2022-08-08T16:48:13.489Z,26.80
2022-08-08T16:50:41.821Z,26.60
2022-08-08T16:55:22.671Z,26.50
2022-08-08T16:56:00.428Z,26.30
2022-08-08T16:58:32.546Z,26.20
2022-08-08T17:01:05.598Z,26.10
2022-08-08T17:04:00.400Z,26.00
2022-08-08T17:06:36.086Z,25.90
2022-08-08T17:09:06.550Z,25.80
2022-08-08T17:11:38.873Z,25.80
2022-08-08T17:14:18.756Z,25.70
2022-08-08T17:16:57.362Z,25.70
2022-08-08T17:19:29.677Z,25.70
2022-08-08T17:21:57.898Z,25.50
2022-08-08T17:24:30.853Z,25.40
2022-08-08T17:26:59.272Z,25.40
2022-08-08T17:29:27.359Z,25.30
2022-08-08T17:31:57.502Z,25.20
2022-08-08T17:34:36.182Z,25.10
2022-08-08T17:37:15.172Z,25.10
2022-08-08T17:40:02.865Z,25.10
2022-08-08T17:42:31.096Z,25.10
2022-08-08T17:44:58.991Z,24.90
2022-08-08T17:47:27.751Z,24.90
2022-08-08T17:50:01.279Z,24.90
2022-08-08T17:52:33.427Z,24.90
2022-08-08T17:55:05.650Z,24.90
2022-08-08T17:57:51.508Z,24.90
2022-08-08T18:00:25.965Z,24.70
2022-08-08T18:03:08.316Z,24.70
2022-08-08T18:05:47.911Z,24.70
2022-08-08T18:08:25.257Z,24.60
2022-08-08T18:11:11.554Z,24.50
2022-08-08T18:13:41.458Z,24.30
2022-08-08T18:16:11.569Z,24.10
2022-08-08T18:18:45.493Z,24.00
2022-08-08T18:21:25.060Z,23.80
2022-08-08T18:24:04.929Z,23.60
2022-08-08T18:26:33.468Z,23.40
2022-08-08T18:29:01.635Z,23.20
2022-08-08T18:31:29.643Z,23.00
2022-08-08T18:34:12.129Z,22.90
2022-08-08T18:36:46.261Z,22.80
2022-08-08T18:39:16.398Z,22.70
2022-08-08T18:41:59.828Z,22.60
2022-08-08T18:44:35.821Z,22.50
2022-08-08T18:47:04.759Z,22.50
2022-08-08T18:49:40.847Z,22.30
2022-08-08T18:52:22.723Z,22.10
2022-08-08T18:55:01.094Z,21.90
2022-08-08T18:57:40.996Z,21.90
2022-08-08T19:00:15.798Z,21.90
2022-08-08T19:02:54.699Z,21.80
2022-08-08T19:05:24.465Z,21.80
2022-08-08T19:08:00.274Z,21.60
2022-08-08T19:10:29.569Z,21.50
2022-08-08T19:12:58.062Z,21.40
2022-08-08T19:15:34.156Z,21.30
2022-08-08T19:18:32.001Z,21.20
2022-08-08T19:20:51.429Z,21.10
2022-08-08T19:23:21.673Z,21.00
2022-08-08T19:26:02.393Z,20.90
2022-08-08T19:28:41.295Z,20.90
2022-08-08T19:31:09.996Z,20.70
2022-08-08T19:34:04.283Z,20.60
2022-08-08T19:36:28.822Z,20.50
2022-08-08T19:38:56.973Z,20.30
2022-08-08T19:41:29.792Z,20.20
2022-08-08T19:44:03.356Z,20.00
2022-08-08T19:46:33.743Z,19.90
2022-08-08T19:49:03.208Z,19.80
2022-08-08T19:51:34.507Z,19.80
2022-08-08T19:54:07.334Z,19.70
2022-08-08T19:56:40.215Z,19.80
2022-08-08T19:59:09.608Z,19.70
2022-08-08T20:02:02.142Z,19.80
2022-08-08T20:04:26.322Z,19.70
2022-08-08T20:06:54.191Z,19.70
2022-08-08T20:09:24.741Z,19.60
2022-08-08T20:11:54.025Z,19.60
2022-08-08T20:14:34.385Z,19.60
2022-08-08T20:17:04.391Z,19.50
2022-08-08T20:19:33.653Z,19.50
2022-08-08T20:22:20.838Z,19.50
2022-08-08T20:24:54.503Z,19.40
2022-08-08T20:27:24.555Z,19.40
2022-08-08T20:30:00.363Z,19.50
2022-08-08T20:32:29.547Z,19.40
2022-08-08T20:35:01.196Z,19.30
2022-08-08T20:37:46.970Z,19.30
2022-08-08T20:40:18.206Z,19.20
2022-08-08T20:43:13.260Z,19.20
2022-08-08T20:45:55.201Z,19.10
2022-08-08T20:48:28.314Z,19.00
2022-08-08T20:50:56.209Z,19.00
2022-08-08T20:53:59.262Z,18.90
2022-08-08T20:56:15.168Z,18.90
2022-08-08T20:58:47.570Z,18.80
2022-08-08T21:01:20.346Z,18.80
2022-08-08T21:03:55.599Z,18.70
2022-08-08T21:06:52.654Z,18.60
2022-08-08T21:09:16.095Z,18.60
2022-08-08T21:11:51.248Z,18.60
2022-08-08T21:14:33.569Z,18.50
2022-08-08T21:17:03.134Z,18.50
2022-08-08T21:19:45.711Z,18.40
2022-08-08T21:22:14.512Z,18.30
2022-08-08T21:24:52.537Z,18.30
2022-08-08T21:27:38.796Z,18.20
2022-08-08T21:30:16.399Z,18.10
2022-08-08T21:32:51.875Z,18.10
2022-08-08T21:36:13.580Z,18.10
2022-08-08T21:38:16.383Z,18.10
2022-08-08T21:40:56.002Z,17.90
2022-08-08T21:43:25.502Z,17.90
2022-08-08T21:48:08.619Z,17.80
2022-08-08T21:48:49.331Z,17.80
2022-08-08T21:51:20.356Z,17.90
2022-08-08T21:54:34.359Z,17.90
2022-08-08T21:56:59.402Z,17.90
2022-08-08T21:59:44.097Z,17.90
2022-08-08T22:02:19.592Z,17.80
2022-08-08T22:04:50.939Z,17.70
2022-08-08T22:07:19.452Z,17.60
2022-08-08T22:09:47.409Z,17.60
2022-08-08T22:12:17.177Z,17.60
2022-08-08T22:14:47.347Z,17.60
2022-08-08T22:17:19.385Z,17.50
2022-08-08T22:20:11.962Z,17.60
2022-08-08T22:22:38.116Z,17.50
2022-08-08T22:25:17.770Z,17.50
2022-08-08T22:28:02.693Z,17.50
2022-08-08T22:30:33.549Z,17.40
2022-08-08T22:33:03.078Z,17.30
2022-08-08T22:36:05.452Z,17.30
2022-08-08T22:38:48.073Z,17.20
2022-08-08T22:41:21.441Z,17.10
2022-08-08T22:44:02.555Z,17.10
2022-08-08T22:46:34.279Z,17.10
2022-08-08T22:49:09.026Z,17.00
2022-08-08T22:51:42.683Z,17.00
2022-08-08T22:54:32.305Z,16.90
2022-08-08T22:57:11.245Z,16.90
2022-08-08T22:59:48.441Z,16.80
2022-08-08T23:02:28.732Z,16.80
2022-08-08T23:05:01.958Z,16.70
2022-08-08T23:07:51.673Z,16.70
2022-08-08T23:10:22.201Z,16.70
2022-08-08T23:12:53.379Z,16.70
2022-08-08T23:16:40.597Z,16.60
2022-08-08T23:18:11.810Z,16.50
2022-08-08T23:20:43.547Z,16.50
2022-08-08T23:23:11.665Z,16.40
2022-08-08T23:25:48.013Z,16.40
2022-08-08T23:28:17.727Z,16.40
2022-08-08T23:30:46.049Z,16.50
2022-08-08T23:33:21.310Z,16.60
2022-08-08T23:36:07.717Z,16.60
2022-08-08T23:38:36.717Z,16.70
2022-08-08T23:41:23.123Z,16.70
2022-08-08T23:43:54.378Z,16.70
2022-08-08T23:49:03.597Z,16.60
2022-08-08T23:49:14.930Z,16.50
2022-08-08T23:52:05.840Z,16.50
2022-08-08T23:54:41.857Z,16.50
2022-08-08T23:57:26.738Z,16.40
